createdAt,value
2023-04-10T00:01:53.445Z,99226.47
2023-04-10T00:04:20.239Z,99226.47
2023-04-10T00:06:49.081Z,99230.84
2023-04-10T00:09:15.840Z,99221.25
2023-04-10T00:11:42.582Z,99216.03
2023-04-10T00:14:09.154Z,99213.41
2023-04-10T00:16:35.938Z,99210.78
2023-04-10T00:19:02.726Z,99209.03
2023-04-10T00:21:29.393Z,99216.88
2023-04-10T00:23:56.403Z,99218.63
2023-04-10T00:26:24.017Z,99222.97
2023-04-10T00:28:51.055Z,99209.91
2023-04-10T00:31:17.723Z,99214.25
2023-04-10T00:33:44.424Z,99202.94
2023-04-10T00:36:11.321Z,99203.78
2023-04-10T00:38:38.171Z,99197.69
2023-04-10T00:41:05.188Z,99201.19
2023-04-10T00:43:31.874Z,99195.94
2023-04-10T00:45:58.926Z,99192.47
2023-04-10T00:48:26.439Z,99189.84
2023-04-10T00:50:53.296Z,99199.41
2023-04-10T00:53:20.473Z,99209.00
2023-04-10T00:55:47.945Z,99207.19
2023-04-10T00:58:14.927Z,99201.06
2023-04-10T01:00:42.358Z,99208.84
2023-04-10T01:03:09.959Z,99207.00
2023-04-10T01:05:45.165Z,99204.31
2023-04-10T01:08:17.631Z,99203.31
2023-04-10T01:10:56.950Z,99196.28
2023-04-10T01:13:32.902Z,99196.16
2023-04-10T01:16:11.176Z,99192.63
2023-04-10T01:19:05.077Z,99200.34
2023-04-10T01:21:36.563Z,99192.44
2023-04-10T01:24:36.747Z,99198.38
2023-04-10T01:27:21.442Z,99202.66
2023-04-10T01:29:56.108Z,99193.09
2023-04-10T01:32:25.042Z,99199.97
2023-04-10T01:34:54.632Z,99192.06
2023-04-10T01:37:43.839Z,99195.44
2023-04-10T01:40:15.731Z,99205.81
2023-04-10T01:42:55.505Z,99194.47
2023-04-10T01:45:27.870Z,99204.84
2023-04-10T01:47:55.750Z,99211.69
2023-04-10T01:50:26.169Z,99209.06
2023-04-10T01:52:53.055Z,99208.13
2023-04-10T01:55:21.082Z,99215.91
2023-04-10T01:57:49.164Z,99212.34
2023-04-10T02:00:16.994Z,99220.09
2023-04-10T02:02:44.861Z,99228.66
2023-04-10T02:05:11.667Z,99225.19
2023-04-10T02:08:15.588Z,99219.09
2023-04-10T02:10:52.234Z,99219.94
2023-04-10T02:13:21.850Z,99212.03
2023-04-10T02:15:52.386Z,99215.38
2023-04-10T02:18:20.256Z,99215.28
2023-04-10T02:20:47.369Z,99212.06
2023-04-10T02:23:17.526Z,99202.50
2023-04-10T02:25:44.471Z,99208.44
2023-04-10T02:28:11.057Z,99210.94
2023-04-10T02:30:39.295Z,99205.53
2023-04-10T02:33:06.064Z,99217.53
2023-04-10T02:35:34.282Z,99213.06
2023-04-10T02:38:01.031Z,99209.41
2023-04-10T02:40:27.952Z,99206.66
2023-04-10T02:42:54.552Z,99205.75
2023-04-10T02:45:21.450Z,99211.69
2023-04-10T02:47:48.163Z,99210.84
2023-04-10T02:50:14.912Z,99209.13
2023-04-10T02:52:42.109Z,99207.50
2023-04-10T02:55:09.244Z,99205.50
2023-04-10T02:57:36.615Z,99211.28
2023-04-10T03:00:05.448Z,99210.59
2023-04-10T03:02:32.970Z,99211.38
2023-04-10T03:05:02.113Z,99210.41
2023-04-10T03:07:28.754Z,99208.44
2023-04-10T03:09:55.449Z,99208.31
2023-04-10T03:12:22.142Z,99209.03
2023-04-10T03:14:48.811Z,99212.44
2023-04-10T03:17:15.507Z,99218.44
2023-04-10T03:19:42.191Z,99209.63
2023-04-10T03:22:10.260Z,99212.13
2023-04-10T03:24:38.395Z,99209.72
2023-04-10T03:27:05.033Z,99208.91
2023-04-10T03:29:31.649Z,99202.81
2023-04-10T03:31:58.483Z,99201.00
2023-04-10T03:34:25.155Z,99201.00
2023-04-10T03:36:51.956Z,99200.13
2023-04-10T03:39:18.531Z,99199.19
2023-04-10T03:41:45.464Z,99199.06
2023-04-10T03:44:12.131Z,99203.44
2023-04-10T03:46:38.924Z,99193.06
2023-04-10T03:49:05.697Z,99194.88
2023-04-10T03:51:32.589Z,99193.16
2023-04-10T03:53:59.381Z,99183.47
2023-04-10T03:56:26.347Z,99184.13
2023-04-10T03:58:53.089Z,99190.88
2023-04-10T04:01:19.792Z,99191.53
2023-04-10T04:03:46.582Z,99187.91
2023-04-10T04:06:13.321Z,99194.66
2023-04-10T04:08:40.034Z,99192.94
2023-04-10T04:11:07.248Z,99190.28
2023-04-10T04:13:33.817Z,99193.69
2023-04-10T04:16:00.748Z,99192.81
2023-04-10T04:18:27.317Z,99188.63
2023-04-10T04:20:53.932Z,99187.81
2023-04-10T04:23:20.668Z,99188.00
2023-04-10T04:25:47.311Z,99181.22
2023-04-10T04:28:16.232Z,99184.84
2023-04-10T04:30:43.099Z,99183.25
2023-04-10T04:33:09.784Z,99179.06
2023-04-10T04:35:36.457Z,99182.69
2023-04-10T04:38:03.165Z,99188.81
2023-04-10T04:40:29.979Z,99193.16
2023-04-10T04:42:56.552Z,99187.22
2023-04-10T04:45:23.308Z,99189.94
2023-04-10T04:47:50.104Z,99189.25
2023-04-10T04:50:17.122Z,99185.91
2023-04-10T04:52:44.723Z,99188.63
2023-04-10T04:55:11.430Z,99196.44
2023-04-10T04:57:38.120Z,99199.22
2023-04-10T05:00:05.930Z,99199.25
2023-04-10T05:02:32.771Z,99201.91
2023-04-10T05:04:59.761Z,99188.06
2023-04-10T05:07:27.219Z,99196.81
2023-04-10T05:09:54.112Z,99189.97
2023-04-10T05:12:20.894Z,99193.59
2023-04-10T05:14:47.616Z,99193.81
2023-04-10T05:17:15.638Z,99197.34
2023-04-10T05:19:42.339Z,99189.59
2023-04-10T05:22:09.234Z,99199.22
2023-04-10T05:24:36.035Z,99206.38
2023-04-10T05:27:03.361Z,99204.75
2023-04-10T05:29:30.012Z,99199.69
2023-04-10T05:31:56.676Z,99194.66
2023-04-10T05:34:23.408Z,99196.53
2023-04-10T05:36:50.130Z,99200.13
2023-04-10T05:39:17.428Z,99200.22
2023-04-10T05:41:44.127Z,99203.75
2023-04-10T05:44:10.854Z,99193.31
2023-04-10T05:46:37.459Z,99196.81
2023-04-10T05:49:04.086Z,99189.84
2023-04-10T05:51:30.997Z,99198.56
2023-04-10T05:53:57.626Z,99191.59
2023-04-10T05:56:24.263Z,99196.81
2023-04-10T05:58:51.052Z,99203.81
2023-04-10T06:01:17.664Z,99200.31
2023-04-10T06:03:44.619Z,99205.50
2023-04-10T06:06:11.542Z,99202.88
2023-04-10T06:08:38.129Z,99201.09
2023-04-10T06:11:04.943Z,99203.69
2023-04-10T06:13:32.655Z,99200.19
2023-04-10T06:15:59.455Z,99193.91
2023-04-10T06:18:26.124Z,99193.66
2023-04-10T06:20:52.820Z,99185.63
2023-04-10T06:23:19.468Z,99192.50
2023-04-10T06:25:46.172Z,99189.66
2023-04-10T06:28:12.907Z,99183.22
2023-04-10T06:30:39.701Z,99185.50
2023-04-10T06:33:06.543Z,99185.16
2023-04-10T06:35:33.241Z,99188.38
2023-04-10T06:37:59.945Z,99182.19
2023-04-10T06:40:26.686Z,99187.19
2023-04-10T06:42:53.335Z,99183.38
2023-04-10T06:45:20.147Z,99179.59
2023-04-10T06:47:47.099Z,99187.06
2023-04-10T06:50:13.884Z,99175.22
2023-04-10T06:52:40.638Z,99175.16
2023-04-10T06:55:07.704Z,99173.56
2023-04-10T06:57:34.450Z,99163.22
2023-04-10T07:00:01.583Z,99168.44
2023-04-10T07:02:28.419Z,99166.38
2023-04-10T07:04:57.199Z,99163.38
2023-04-10T07:07:24.234Z,99155.09
2023-04-10T07:09:51.054Z,99166.56
2023-04-10T07:12:17.806Z,99161.09
2023-04-10T07:14:44.569Z,99161.84
2023-04-10T07:17:11.309Z,99160.34
2023-04-10T07:19:38.470Z,99157.78
2023-04-10T07:22:05.162Z,99152.56
2023-04-10T07:24:32.772Z,99159.81
2023-04-10T07:27:00.944Z,99155.22
2023-04-10T07:29:27.726Z,99151.84
2023-04-10T07:31:54.561Z,99150.69
2023-04-10T07:34:21.334Z,99150.16
2023-04-10T07:36:48.577Z,99160.03
2023-04-10T07:39:18.619Z,99152.88
2023-04-10T07:41:45.395Z,99146.13
2023-04-10T07:44:13.470Z,99141.69
2023-04-10T07:46:40.977Z,99140.22
2023-04-10T07:49:08.904Z,99139.78
2023-04-10T07:51:35.719Z,99130.66
2023-04-10T07:54:03.685Z,99126.53
2023-04-10T07:56:31.666Z,99134.34
2023-04-10T07:59:01.258Z,99127.50
2023-04-10T08:01:29.140Z,99123.31
2023-04-10T08:03:59.084Z,99120.25
2023-04-10T08:06:26.076Z,99120.22
2023-04-10T08:08:52.996Z,99116.81
2023-04-10T08:11:28.012Z,99118.44
2023-04-10T08:13:56.778Z,99120.09
2023-04-10T08:16:27.670Z,99108.81
2023-04-10T08:18:55.848Z,99110.13
2023-04-10T08:21:23.541Z,99103.38
2023-04-10T08:23:51.558Z,99109.97
2023-04-10T08:26:19.648Z,99103.28
2023-04-10T08:28:50.979Z,99097.84
2023-04-10T08:31:22.500Z,99111.38
2023-04-10T08:33:49.467Z,99115.06
2023-04-10T08:36:19.046Z,99114.63
2023-04-10T08:38:47.663Z,99107.38
2023-04-10T08:41:17.270Z,99092.16
2023-04-10T08:43:45.789Z,99099.19
2023-04-10T08:46:13.325Z,99100.38
2023-04-10T08:48:53.498Z,99107.16
2023-04-10T08:51:26.321Z,99090.81
2023-04-10T08:53:58.664Z,99095.66
2023-04-10T08:56:26.338Z,99091.09
2023-04-10T08:58:53.493Z,99086.50
2023-04-10T09:01:21.850Z,99084.69
2023-04-10T09:03:49.045Z,99081.13
2023-04-10T09:06:15.880Z,99086.44
2023-04-10T09:08:42.503Z,99070.34
2023-04-10T09:11:09.169Z,99070.03
2023-04-10T09:13:38.124Z,99060.78
2023-04-10T09:16:05.601Z,99058.41
2023-04-10T09:18:42.778Z,99060.28
2023-04-10T09:21:15.301Z,99050.00
2023-04-10T09:23:44.597Z,99050.47
2023-04-10T09:26:33.913Z,99044.63
2023-04-10T09:29:02.811Z,99038.56
2023-04-10T09:31:32.532Z,99035.16
2023-04-10T09:34:09.290Z,99025.38
2023-04-10T09:36:37.634Z,99019.81
2023-04-10T09:39:06.048Z,99021.09
2023-04-10T09:41:32.975Z,99016.09
2023-04-10T09:44:28.906Z,99011.69
2023-04-10T09:46:55.823Z,99006.88
2023-04-10T09:49:22.884Z,99003.66
2023-04-10T09:51:49.942Z,99009.56
2023-04-10T09:54:16.561Z,98999.03
2023-04-10T09:56:46.117Z,98992.53
2023-04-10T09:59:14.264Z,98984.09
2023-04-10T10:01:42.472Z,98976.38
2023-04-10T10:04:10.016Z,98976.84
2023-04-10T10:06:38.490Z,98969.81
2023-04-10T10:09:05.839Z,98962.13
2023-04-10T10:11:36.277Z,98967.53
2023-04-10T10:14:06.574Z,98960.69
2023-04-10T10:16:53.025Z,98953.75
2023-04-10T10:19:31.236Z,98952.53
2023-04-10T10:22:01.066Z,98949.88
2023-04-10T10:24:28.661Z,98948.94
2023-04-10T10:26:57.460Z,98942.97
2023-04-10T10:29:24.664Z,98936.53
2023-04-10T10:31:53.404Z,98936.66
2023-04-10T10:34:20.681Z,98932.19
2023-04-10T10:36:47.422Z,98926.19
2023-04-10T10:39:35.458Z,98928.75
2023-04-10T10:42:20.528Z,98933.41
2023-04-10T10:44:57.552Z,98935.81
2023-04-10T10:47:29.240Z,98921.59
2023-04-10T10:50:03.326Z,98918.69
2023-04-10T10:52:53.912Z,98922.03
2023-04-10T10:55:31.948Z,98921.03
2023-04-10T10:58:01.362Z,98913.00
2023-04-10T11:00:50.987Z,98896.94
2023-04-10T11:03:17.722Z,98898.94
2023-04-10T11:05:55.702Z,98889.91
2023-04-10T11:08:37.506Z,98889.38
2023-04-10T11:11:06.473Z,98874.16
2023-04-10T11:13:34.750Z,98873.66
2023-04-10T11:16:03.841Z,98869.00
2023-04-10T11:18:45.893Z,98875.59
2023-04-10T11:21:20.038Z,98865.56
2023-04-10T11:23:58.667Z,98858.53
2023-04-10T11:26:38.428Z,98850.44
2023-04-10T11:29:08.583Z,98853.00
2023-04-10T11:31:35.771Z,98844.06
2023-04-10T11:34:04.263Z,98848.69
2023-04-10T11:36:31.348Z,98842.41
2023-04-10T11:39:06.612Z,98846.19
2023-04-10T11:41:34.936Z,98832.31
2023-04-10T11:44:03.756Z,98835.16
2023-04-10T11:46:31.779Z,98818.31
2023-04-10T11:49:01.603Z,98826.31
2023-04-10T11:51:28.866Z,98809.34
2023-04-10T11:54:09.535Z,98811.13
2023-04-10T11:56:37.716Z,98801.13
2023-04-10T11:59:09.787Z,98800.75
2023-04-10T12:01:37.649Z,98804.00
2023-04-10T12:04:04.630Z,98792.97
2023-04-10T12:06:31.952Z,98788.97
2023-04-10T12:08:58.817Z,98781.91
2023-04-10T12:11:26.609Z,98774.78
2023-04-10T12:13:57.279Z,98765.34
2023-04-10T12:16:25.540Z,98771.13
2023-04-10T12:18:53.345Z,98768.53
2023-04-10T12:21:20.572Z,98774.31
2023-04-10T12:23:47.007Z,98758.63
2023-04-10T12:26:15.855Z,98755.88
2023-04-10T12:28:51.059Z,98754.06
2023-04-10T12:31:17.948Z,98746.91
2023-04-10T12:33:47.638Z,98746.28
2023-04-10T12:36:24.620Z,98744.69
2023-04-10T12:38:51.401Z,98738.22
2023-04-10T12:41:23.765Z,98737.19
2023-04-10T12:43:52.031Z,98731.59
2023-04-10T12:46:27.744Z,98722.06
2023-04-10T12:48:56.383Z,98707.44
2023-04-10T12:51:49.086Z,98713.22
2023-04-10T12:54:33.319Z,98701.53
2023-04-10T12:57:01.574Z,98697.56
2023-04-10T12:59:29.276Z,98690.88
2023-04-10T13:01:56.578Z,98682.59
2023-04-10T13:04:24.003Z,98682.88
2023-04-10T13:06:53.427Z,98682.59
2023-04-10T13:09:20.157Z,98678.34
2023-04-10T13:11:47.818Z,98678.13
2023-04-10T13:14:16.159Z,98676.22
2023-04-10T13:16:42.978Z,98680.44
2023-04-10T13:19:09.674Z,98664.72
2023-04-10T13:21:36.474Z,98676.78
2023-04-10T13:24:03.295Z,98662.25
2023-04-10T13:26:30.065Z,98660.22
2023-04-10T13:28:56.891Z,98652.56
2023-04-10T13:31:23.974Z,98651.28
2023-04-10T13:33:50.641Z,98646.38
2023-04-10T13:36:17.428Z,98651.78
2023-04-10T13:38:44.182Z,98640.72
2023-04-10T13:41:10.987Z,98640.72
2023-04-10T13:43:37.710Z,98637.75
2023-04-10T13:46:04.348Z,98625.66
2023-04-10T13:48:40.005Z,98617.34
2023-04-10T13:51:18.213Z,98625.66
2023-04-10T13:53:44.960Z,98615.97
2023-04-10T13:56:11.668Z,98603.44
2023-04-10T13:58:38.339Z,98604.63
2023-04-10T14:01:05.284Z,98602.59
2023-04-10T14:03:32.084Z,98605.34
2023-04-10T14:05:58.773Z,98612.66
2023-04-10T14:08:25.468Z,98603.19
2023-04-10T14:10:52.082Z,98598.63
2023-04-10T14:13:19.050Z,98594.09
2023-04-10T14:15:45.795Z,98590.50
2023-04-10T14:18:12.901Z,98583.50
2023-04-10T14:20:42.573Z,98584.34
2023-04-10T14:23:09.743Z,98593.88
2023-04-10T14:25:36.337Z,98589.00
2023-04-10T14:28:03.074Z,98581.13
2023-04-10T14:30:31.088Z,98575.81
2023-04-10T14:32:58.035Z,98580.34
2023-04-10T14:35:24.893Z,98576.78
2023-04-10T14:37:51.487Z,98571.91
2023-04-10T14:40:17.985Z,98570.34
2023-04-10T14:42:44.671Z,98572.06
2023-04-10T14:45:11.454Z,98574.06
2023-04-10T14:47:38.178Z,98560.69
2023-04-10T14:50:05.335Z,98565.16
2023-04-10T14:52:32.097Z,98565.97
2023-04-10T14:54:58.700Z,98553.19
2023-04-10T14:57:25.277Z,98546.81
2023-04-10T14:59:52.052Z,98548.81
2023-04-10T15:02:18.709Z,98548.66
2023-04-10T15:04:45.378Z,98546.25
2023-04-10T15:07:13.478Z,98533.06
2023-04-10T15:09:40.977Z,98526.16
2023-04-10T15:12:07.795Z,98522.78
2023-04-10T15:14:34.614Z,98524.97
2023-04-10T15:17:01.419Z,98525.38
2023-04-10T15:19:28.136Z,98510.06
2023-04-10T15:21:55.282Z,98522.22
2023-04-10T15:24:21.893Z,98524.41
2023-04-10T15:26:48.557Z,98513.09
2023-04-10T15:29:15.216Z,98497.41
2023-04-10T15:31:44.669Z,98503.19
2023-04-10T15:34:11.440Z,98490.41
2023-04-10T15:36:38.070Z,98481.47
2023-04-10T15:39:04.953Z,98476.44
2023-04-10T15:41:32.890Z,98480.97
2023-04-10T15:43:59.948Z,98479.81
2023-04-10T15:46:27.314Z,98474.88
2023-04-10T15:48:54.034Z,98471.03
2023-04-10T15:51:21.549Z,98468.94
2023-04-10T15:53:48.279Z,98480.41
2023-04-10T15:56:16.194Z,98459.19
2023-04-10T15:58:43.030Z,98472.94
2023-04-10T16:01:09.750Z,98461.56
2023-04-10T16:03:36.631Z,98451.72
2023-04-10T16:06:03.628Z,98462.13
2023-04-10T16:08:30.390Z,98453.88
2023-04-10T16:10:57.066Z,98446.94
2023-04-10T16:13:24.010Z,98448.50
2023-04-10T16:15:52.368Z,98447.44
2023-04-10T16:18:19.227Z,98438.81
2023-04-10T16:20:45.988Z,98440.53
2023-04-10T16:23:12.773Z,98431.66
2023-04-10T16:25:41.391Z,98427.72
2023-04-10T16:28:08.377Z,98423.13
2023-04-10T16:30:35.840Z,98420.75
2023-04-10T16:33:08.413Z,98419.88
2023-04-10T16:35:35.114Z,98410.09
2023-04-10T16:38:01.769Z,98397.19
2023-04-10T16:40:32.591Z,98396.94
2023-04-10T16:43:02.436Z,98393.50
2023-04-10T16:45:29.421Z,98384.16
2023-04-10T16:47:56.501Z,98378.47
2023-04-10T16:50:23.278Z,98371.72
2023-04-10T16:52:49.982Z,98361.06
2023-04-10T16:55:16.630Z,98357.81
2023-04-10T16:57:44.215Z,98350.13
2023-04-10T17:00:11.540Z,98348.34
2023-04-10T17:02:38.269Z,98330.31
2023-04-10T17:05:05.372Z,98337.97
2023-04-10T17:07:32.134Z,98331.03
2023-04-10T17:09:59.435Z,98322.59
2023-04-10T17:12:26.429Z,98324.22
2023-04-10T17:14:53.195Z,98319.34
2023-04-10T17:17:19.931Z,98326.44
2023-04-10T17:19:46.777Z,98318.56
2023-04-10T17:22:16.597Z,98314.25
2023-04-10T17:24:44.534Z,98324.75
2023-04-10T17:27:12.127Z,98320.69
2023-04-10T17:29:39.277Z,98315.94
2023-04-10T17:32:07.415Z,98315.94
2023-04-10T17:34:34.449Z,98320.69
2023-04-10T17:37:01.577Z,98320.84
2023-04-10T17:39:28.837Z,98316.75
2023-04-10T17:41:56.572Z,98323.00
2023-04-10T17:44:23.562Z,98314.75
2023-04-10T17:46:50.426Z,98308.78
2023-04-10T17:49:17.232Z,98317.53
2023-04-10T17:51:43.917Z,98327.28
2023-04-10T17:54:10.850Z,98311.94
2023-04-10T17:56:37.709Z,98307.31
2023-04-10T17:59:13.569Z,98302.59
2023-04-10T18:01:40.452Z,98289.44
2023-04-10T18:04:07.515Z,98292.19
2023-04-10T18:06:34.270Z,98289.41
2023-04-10T18:09:01.009Z,98294.53
2023-04-10T18:11:28.588Z,98284.34
2023-04-10T18:13:55.132Z,98281.44
2023-04-10T18:16:21.941Z,98275.22
2023-04-10T18:18:48.793Z,98280.75
2023-04-10T18:21:16.334Z,98274.28
2023-04-10T18:23:44.758Z,98269.25
2023-04-10T18:26:11.991Z,98274.44
2023-04-10T18:28:39.127Z,98272.09
2023-04-10T18:31:06.434Z,98268.75
2023-04-10T18:33:33.238Z,98266.81
2023-04-10T18:36:00.083Z,98255.84
2023-04-10T18:38:26.935Z,98272.44
2023-04-10T18:40:57.962Z,98263.47
2023-04-10T18:43:27.981Z,98261.34
2023-04-10T18:45:55.335Z,98252.13
2023-04-10T18:48:22.138Z,98260.28
2023-04-10T18:50:52.498Z,98254.91
2023-04-10T18:53:19.730Z,98253.69
2023-04-10T18:55:53.684Z,98252.59
2023-04-10T18:58:21.725Z,98246.88
2023-04-10T19:00:49.251Z,98241.22
2023-04-10T19:03:16.173Z,98239.13
2023-04-10T19:05:43.788Z,98226.75
2023-04-10T19:08:14.504Z,98216.34
2023-04-10T19:10:42.349Z,98222.75
2023-04-10T19:13:12.496Z,98225.31
2023-04-10T19:15:43.822Z,98215.75
2023-04-10T19:18:12.302Z,98212.31
2023-04-10T19:20:50.106Z,98219.38
2023-04-10T19:23:19.518Z,98216.09
2023-04-10T19:25:46.192Z,98221.03
2023-04-10T19:28:12.930Z,98202.50
2023-04-10T19:30:39.567Z,98194.06
2023-04-10T19:33:06.302Z,98182.03
2023-04-10T19:35:32.919Z,98183.94
2023-04-10T19:37:59.648Z,98183.03
2023-04-10T19:40:26.450Z,98188.59
2023-04-10T19:42:53.219Z,98177.69
2023-04-10T19:45:20.501Z,98182.31
2023-04-10T19:47:50.834Z,98178.75
2023-04-10T19:50:17.530Z,98177.91
2023-04-10T19:52:44.093Z,98175.34
2023-04-10T19:55:11.014Z,98176.09
2023-04-10T19:57:37.561Z,98169.69
2023-04-10T20:00:04.424Z,98166.13
2023-04-10T20:02:31.440Z,98165.34
2023-04-10T20:04:58.554Z,98164.50
2023-04-10T20:07:25.302Z,98155.78
2023-04-10T20:09:52.004Z,98152.13
2023-04-10T20:12:18.653Z,98139.13
2023-04-10T20:14:45.425Z,98132.84
2023-04-10T20:17:12.257Z,98119.00
2023-04-10T20:19:38.917Z,98112.88
2023-04-10T20:22:05.566Z,98101.91
2023-04-10T20:24:32.125Z,98103.63
2023-04-10T20:26:58.667Z,98101.69
2023-04-10T20:29:26.637Z,98107.41
2023-04-10T20:31:53.289Z,98096.66
2023-04-10T20:34:19.917Z,98096.66
2023-04-10T20:36:46.501Z,98087.81
2023-04-10T20:39:13.080Z,98084.56
2023-04-10T20:41:39.729Z,98068.56
2023-04-10T20:44:07.101Z,98061.59
2023-04-10T20:46:34.140Z,98041.97
2023-04-10T20:49:00.939Z,98045.56
2023-04-10T20:51:28.807Z,98048.09
2023-04-10T20:53:55.589Z,98051.91
2023-04-10T20:56:30.051Z,98042.06
2023-04-10T20:58:59.675Z,98059.00
2023-04-10T21:01:26.429Z,98045.63
2023-04-10T21:03:53.282Z,98045.88
2023-04-10T21:06:20.015Z,98041.78
2023-04-10T21:08:46.727Z,98039.00
2023-04-10T21:11:13.497Z,98028.69
2023-04-10T21:13:40.132Z,98046.47
2023-04-10T21:16:07.151Z,98042.22
2023-04-10T21:18:33.901Z,98034.31
2023-04-10T21:21:00.658Z,98027.47
2023-04-10T21:23:27.337Z,98008.19
2023-04-10T21:25:54.267Z,97992.38
2023-04-10T21:28:21.164Z,98006.47
2023-04-10T21:30:47.882Z,97997.78
2023-04-10T21:33:14.891Z,97996.06
2023-04-10T21:35:45.155Z,97988.81
2023-04-10T21:38:12.486Z,98003.84
2023-04-10T21:40:39.250Z,98006.47
2023-04-10T21:43:06.492Z,98011.66
2023-04-10T21:45:37.612Z,98008.09
2023-04-10T21:48:04.497Z,98007.53
2023-04-10T21:50:31.252Z,98017.03
2023-04-10T21:52:58.046Z,98001.22
2023-04-10T21:55:24.726Z,97995.94
2023-04-10T21:57:51.484Z,97987.47
2023-04-10T22:00:19.496Z,97977.72
2023-04-10T22:02:47.375Z,97964.38
2023-04-10T22:05:14.260Z,97963.66
2023-04-10T22:07:40.909Z,97975.66
2023-04-10T22:10:08.406Z,97977.34
2023-04-10T22:12:35.031Z,97972.44
2023-04-10T22:15:01.668Z,97963.97
2023-04-10T22:17:28.435Z,97965.56
2023-04-10T22:19:55.104Z,97963.84
2023-04-10T22:22:21.857Z,97957.84
2023-04-10T22:24:48.526Z,97957.91
2023-04-10T22:27:15.533Z,97956.19
2023-04-10T22:29:45.408Z,97945.09
2023-04-10T22:32:14.407Z,97947.78
2023-04-10T22:34:41.166Z,97951.91
2023-04-10T22:37:07.876Z,97955.50
2023-04-10T22:39:34.404Z,97950.34
2023-04-10T22:42:01.126Z,97946.25
2023-04-10T22:44:27.688Z,97928.66
2023-04-10T22:46:54.282Z,97936.41
2023-04-10T22:49:20.892Z,97922.22
2023-04-10T22:51:47.486Z,97919.59
2023-04-10T22:54:14.598Z,97902.81
2023-04-10T22:56:41.217Z,97899.38
2023-04-10T22:59:07.864Z,97887.34
2023-04-10T23:01:34.955Z,97890.91
2023-04-10T23:04:01.715Z,97889.44
2023-04-10T23:06:28.356Z,97865.88
2023-04-10T23:08:55.084Z,97851.09
2023-04-10T23:11:21.996Z,97830.78
2023-04-10T23:13:49.245Z,97837.13
2023-04-10T23:16:15.951Z,97844.25
2023-04-10T23:18:42.609Z,97854.78
2023-04-10T23:21:09.335Z,97872.41
2023-04-10T23:23:35.927Z,97890.72
2023-04-10T23:26:02.791Z,97894.34
2023-04-10T23:28:29.708Z,97886.38
2023-04-10T23:30:56.337Z,97876.78
2023-04-10T23:33:23.182Z,97864.56
2023-04-10T23:35:49.807Z,97858.56
2023-04-10T23:38:16.587Z,97866.59
2023-04-10T23:40:43.194Z,97860.13
2023-04-10T23:43:09.771Z,97861.13
2023-04-10T23:45:36.602Z,97874.50
2023-04-10T23:48:03.281Z,97873.44
2023-04-10T23:50:29.938Z,97871.16
2023-04-10T23:52:56.826Z,97848.59
2023-04-10T23:55:23.626Z,97848.31
2023-04-10T23:57:50.289Z,97851.75
